createdAt,value
2023-02-08T00:00:18.280Z,101366.71
2023-02-08T00:03:24.603Z,101362.70
2023-02-08T00:06:29.292Z,101365.09
2023-02-08T00:09:35.820Z,101366.30
2023-02-08T00:12:42.168Z,101368.77
2023-02-08T00:15:47.501Z,101372.29
2023-02-08T00:18:53.693Z,101376.44
2023-02-08T00:21:59.916Z,101371.44
2023-02-08T00:25:06.506Z,101369.28
2023-02-08T00:28:16.355Z,101370.14
2023-02-08T00:31:22.556Z,101367.80
2023-02-08T00:34:28.857Z,101368.11
2023-02-08T00:37:33.408Z,101364.86
2023-02-08T00:40:39.843Z,101366.09
2023-02-08T00:43:46.174Z,101375.14
2023-02-08T00:46:52.454Z,101375.48
2023-02-08T00:49:56.861Z,101372.45
2023-02-08T00:53:03.041Z,101367.65
2023-02-08T00:56:11.366Z,101366.92
2023-02-08T00:59:17.709Z,101369.35
2023-02-08T01:02:22.198Z,101376.26
2023-02-08T01:05:28.362Z,101376.94
2023-02-08T01:08:34.605Z,101379.02
2023-02-08T01:11:39.308Z,101378.80
2023-02-08T01:14:45.691Z,101380.73
2023-02-08T01:17:56.646Z,101383.62
2023-02-08T01:21:09.240Z,101383.80
2023-02-08T01:24:15.452Z,101387.21
2023-02-08T01:27:21.708Z,101384.98
2023-02-08T01:30:26.320Z,101380.16
2023-02-08T01:33:32.631Z,101379.63
2023-02-08T01:36:37.478Z,101387.17
2023-02-08T01:39:43.603Z,101392.33
2023-02-08T01:42:49.842Z,101389.95
2023-02-08T01:45:54.413Z,101387.60
2023-02-08T01:49:04.022Z,101388.64
2023-02-08T01:52:14.106Z,101387.06
2023-02-08T01:55:26.328Z,101391.29
2023-02-08T01:58:37.823Z,101391.46
2023-02-08T02:01:46.581Z,101392.36
2023-02-08T02:04:54.654Z,101390.45
2023-02-08T02:08:01.841Z,101396.46
2023-02-08T02:11:08.395Z,101398.55
2023-02-08T02:14:15.942Z,101402.27
2023-02-08T02:17:22.924Z,101404.38
2023-02-08T02:20:40.088Z,101402.92
2023-02-08T02:24:27.723Z,101407.04
2023-02-08T02:27:48.900Z,101405.20
2023-02-08T02:31:22.901Z,101405.23
2023-02-08T02:34:38.441Z,101405.96
2023-02-08T02:38:10.376Z,101402.59
2023-02-08T02:41:38.724Z,101406.46
2023-02-08T02:44:53.866Z,101404.49
2023-02-08T02:48:07.262Z,101407.03
2023-02-08T02:51:18.685Z,101407.54
2023-02-08T02:54:30.953Z,101408.75
2023-02-08T02:57:39.116Z,101415.10
2023-02-08T03:00:46.226Z,101415.65
2023-02-08T03:03:53.667Z,101419.57
2023-02-08T03:07:10.397Z,101420.23
2023-02-08T03:10:33.154Z,101421.48
2023-02-08T03:13:52.513Z,101425.13
2023-02-08T03:17:19.794Z,101426.52
2023-02-08T03:20:31.380Z,101423.70
2023-02-08T03:23:43.009Z,101420.54
2023-02-08T03:26:57.529Z,101416.41
2023-02-08T03:30:11.067Z,101410.73
2023-02-08T03:33:21.426Z,101410.17
2023-02-08T03:36:33.147Z,101413.57
2023-02-08T03:39:41.543Z,101410.02
2023-02-08T03:42:50.208Z,101418.47
2023-02-08T03:46:03.532Z,101422.75
2023-02-08T03:49:14.545Z,101424.66
2023-02-08T03:52:20.868Z,101425.76
2023-02-08T03:55:27.303Z,101423.52
2023-02-08T03:58:39.825Z,101423.04
2023-02-08T04:01:50.258Z,101419.56
2023-02-08T04:04:58.298Z,101421.17
2023-02-08T04:08:04.735Z,101428.27
2023-02-08T04:11:11.340Z,101429.41
2023-02-08T04:14:17.658Z,101435.31
2023-02-08T04:17:22.724Z,101438.30
2023-02-08T04:20:29.108Z,101447.14
2023-02-08T04:23:35.337Z,101452.86
2023-02-08T04:26:41.594Z,101451.11
2023-02-08T04:29:46.135Z,101453.71
2023-02-08T04:32:52.295Z,101456.84
2023-02-08T04:35:58.459Z,101449.73
2023-02-08T04:39:04.964Z,101445.07
2023-02-08T04:42:11.397Z,101443.06
2023-02-08T04:45:17.605Z,101440.64
2023-02-08T04:48:24.118Z,101438.47
2023-02-08T04:51:30.387Z,101439.96
2023-02-08T04:54:35.200Z,101439.04
2023-02-08T04:57:41.365Z,101437.25
2023-02-08T05:00:46.081Z,101442.01
2023-02-08T05:03:52.350Z,101447.91
2023-02-08T05:06:56.959Z,101448.46
2023-02-08T05:10:03.682Z,101449.55
2023-02-08T05:13:10.021Z,101451.34
2023-02-08T05:16:14.527Z,101451.73
2023-02-08T05:19:20.823Z,101454.91
2023-02-08T05:22:25.329Z,101464.03
2023-02-08T05:25:31.594Z,101461.50
2023-02-08T05:28:36.152Z,101465.37
2023-02-08T05:31:42.648Z,101464.77
2023-02-08T05:34:49.149Z,101471.43
2023-02-08T05:37:55.383Z,101469.89
2023-02-08T05:41:01.691Z,101463.18
2023-02-08T05:44:06.384Z,101463.70
2023-02-08T05:47:12.712Z,101473.90
2023-02-08T05:50:17.507Z,101481.55
2023-02-08T05:53:23.992Z,101479.04
2023-02-08T05:56:30.559Z,101479.28
2023-02-08T05:59:36.736Z,101480.75
2023-02-08T06:02:43.062Z,101480.05
2023-02-08T06:05:47.659Z,101481.25
2023-02-08T06:08:53.886Z,101489.26
2023-02-08T06:12:00.123Z,101497.96
2023-02-08T06:15:04.959Z,101504.86
2023-02-08T06:18:11.834Z,101507.21
2023-02-08T06:21:18.106Z,101506.65
2023-02-08T06:24:25.412Z,101513.15
2023-02-08T06:27:31.721Z,101517.36
2023-02-08T06:30:36.228Z,101521.77
2023-02-08T06:33:42.452Z,101522.41
2023-02-08T06:36:48.725Z,101525.62
2023-02-08T06:39:53.302Z,101538.83
2023-02-08T06:42:59.465Z,101544.96
2023-02-08T06:46:08.653Z,101545.48
2023-02-08T06:49:15.505Z,101548.01
2023-02-08T06:52:22.569Z,101548.34
2023-02-08T06:55:28.812Z,101551.86
2023-02-08T06:58:33.288Z,101554.02
2023-02-08T07:01:39.605Z,101556.06
2023-02-08T07:04:44.092Z,101558.84
2023-02-08T07:07:50.352Z,101552.55
2023-02-08T07:10:54.939Z,101548.35
2023-02-08T07:14:01.135Z,101553.04
2023-02-08T07:17:07.401Z,101556.38
2023-02-08T07:20:13.086Z,101558.48
2023-02-08T07:23:19.373Z,101559.07
2023-02-08T07:26:23.857Z,101560.48
2023-02-08T07:29:32.345Z,101557.74
2023-02-08T07:32:38.633Z,101562.70
2023-02-08T07:35:43.290Z,101565.40
2023-02-08T07:38:49.526Z,101559.51
2023-02-08T07:41:56.134Z,101562.57
2023-02-08T07:45:02.300Z,101567.38
2023-02-08T07:48:08.639Z,101570.11
2023-02-08T07:51:15.655Z,101570.84
2023-02-08T07:54:21.913Z,101572.63
2023-02-08T07:57:28.273Z,101577.22
2023-02-08T08:00:32.922Z,101580.38
2023-02-08T08:03:39.220Z,101576.71
2023-02-08T08:06:43.779Z,101579.85
2023-02-08T08:09:50.505Z,101584.33
2023-02-08T08:12:56.788Z,101578.23
2023-02-08T08:16:01.389Z,101577.10
2023-02-08T08:19:08.013Z,101580.91
2023-02-08T08:22:14.335Z,101582.73
2023-02-08T08:25:18.946Z,101583.90
2023-02-08T08:28:25.337Z,101584.80
2023-02-08T08:31:32.159Z,101591.34
2023-02-08T08:34:38.357Z,101590.85
2023-02-08T08:37:44.540Z,101588.39
2023-02-08T08:40:50.813Z,101592.76
2023-02-08T08:43:55.540Z,101600.01
2023-02-08T08:47:02.245Z,101596.04
2023-02-08T08:50:09.589Z,101600.38
2023-02-08T08:53:15.920Z,101609.75
2023-02-08T08:56:20.464Z,101608.57
2023-02-08T08:59:27.154Z,101605.66
2023-02-08T09:02:33.397Z,101609.00
2023-02-08T09:05:39.668Z,101607.89
2023-02-08T09:08:46.008Z,101609.87
2023-02-08T09:11:50.913Z,101608.39
2023-02-08T09:14:57.167Z,101606.55
2023-02-08T09:18:03.336Z,101611.55
2023-02-08T09:21:12.120Z,101620.05
2023-02-08T09:24:19.441Z,101618.88
2023-02-08T09:27:25.602Z,101618.55
2023-02-08T09:30:31.834Z,101623.92
2023-02-08T09:33:38.273Z,101625.89
2023-02-08T09:36:44.891Z,101625.91
2023-02-08T09:39:51.175Z,101620.80
2023-02-08T09:43:09.764Z,101616.27
2023-02-08T09:46:21.539Z,101615.05
2023-02-08T09:49:33.530Z,101616.13
2023-02-08T09:52:43.837Z,101613.58
2023-02-08T09:55:53.130Z,101617.51
2023-02-08T09:59:00.598Z,101613.66
2023-02-08T10:02:18.724Z,101609.48
2023-02-08T10:05:28.569Z,101604.62
2023-02-08T10:08:36.345Z,101598.82
2023-02-08T10:11:58.342Z,101602.02
2023-02-08T10:15:14.320Z,101599.55
2023-02-08T10:18:34.591Z,101598.74
2023-02-08T10:21:53.725Z,101601.11
2023-02-08T10:25:17.579Z,101600.53
2023-02-08T10:28:35.409Z,101602.01
2023-02-08T10:32:02.652Z,101605.40
2023-02-08T10:35:14.321Z,101607.00
2023-02-08T10:38:44.024Z,101604.80
2023-02-08T10:41:52.341Z,101604.73
2023-02-08T10:45:19.056Z,101608.14
2023-02-08T10:48:46.470Z,101596.36
2023-02-08T10:51:54.264Z,101593.94
2023-02-08T10:55:01.194Z,101588.96
2023-02-08T10:58:08.323Z,101590.52
2023-02-08T11:01:14.730Z,101586.73
2023-02-08T11:04:21.704Z,101581.23
2023-02-08T11:07:28.252Z,101582.91
2023-02-08T11:10:36.767Z,101579.21
2023-02-08T11:13:44.617Z,101578.88
2023-02-08T11:16:55.805Z,101580.56
2023-02-08T11:20:02.654Z,101581.34
2023-02-08T11:23:23.896Z,101575.96
2023-02-08T11:26:35.724Z,101575.27
2023-02-08T11:29:41.881Z,101572.90
2023-02-08T11:32:49.477Z,101576.11
2023-02-08T11:36:07.671Z,101574.28
2023-02-08T11:39:24.410Z,101571.27
2023-02-08T11:42:36.124Z,101565.28
2023-02-08T11:45:46.762Z,101562.27
2023-02-08T11:48:55.378Z,101559.77
2023-02-08T11:52:01.738Z,101564.71
2023-02-08T11:55:24.931Z,101559.17
2023-02-08T11:58:31.542Z,101556.19
2023-02-08T12:01:39.779Z,101550.29
2023-02-08T12:04:46.077Z,101547.58
2023-02-08T12:08:07.806Z,101546.80
2023-02-08T12:11:25.301Z,101544.95
2023-02-08T12:14:46.997Z,101538.86
2023-02-08T12:18:15.225Z,101535.15
2023-02-08T12:21:26.820Z,101533.21
2023-02-08T12:24:42.645Z,101532.77
2023-02-08T12:27:56.285Z,101531.98
2023-02-08T12:31:08.869Z,101527.45
2023-02-08T12:34:21.903Z,101524.45
2023-02-08T12:37:54.108Z,101519.52
2023-02-08T12:41:08.544Z,101515.90
2023-02-08T12:44:24.529Z,101514.10
2023-02-08T12:47:49.269Z,101516.06
2023-02-08T12:51:07.103Z,101515.33
2023-02-08T12:54:17.149Z,101516.03
2023-02-08T12:57:26.062Z,101513.85
2023-02-08T13:00:38.454Z,101511.07
2023-02-08T13:03:50.398Z,101506.79
2023-02-08T13:07:03.475Z,101500.37
2023-02-08T13:10:17.323Z,101496.63
2023-02-08T13:13:27.009Z,101498.61
2023-02-08T13:16:39.556Z,101499.94
2023-02-08T13:20:00.214Z,101495.33
2023-02-08T13:23:14.153Z,101493.05
2023-02-08T13:26:24.857Z,101489.98
2023-02-08T13:29:33.626Z,101488.73
2023-02-08T13:32:44.310Z,101488.24
2023-02-08T13:35:54.992Z,101486.14
2023-02-08T13:39:03.505Z,101485.77
2023-02-08T13:42:21.664Z,101485.64
2023-02-08T13:45:34.329Z,101488.44
2023-02-08T13:48:53.122Z,101485.04
2023-02-08T13:51:59.884Z,101483.91
2023-02-08T13:55:46.110Z,101484.48
2023-02-08T13:59:05.831Z,101480.23
2023-02-08T14:02:26.910Z,101480.25
2023-02-08T14:05:48.543Z,101479.77
2023-02-08T14:09:02.156Z,101479.16
2023-02-08T14:12:14.512Z,101475.60
2023-02-08T14:15:37.860Z,101479.59
2023-02-08T14:18:55.497Z,101475.67
2023-02-08T14:22:07.055Z,101477.90
2023-02-08T14:40:48.391Z,101479.59
2023-02-08T14:43:54.635Z,101477.63
2023-02-08T14:47:00.981Z,101482.38
2023-02-08T14:50:07.523Z,101487.73
2023-02-08T14:53:26.370Z,101492.50
2023-02-08T14:56:35.048Z,101492.53
2023-02-08T14:59:42.856Z,101497.48
2023-02-08T15:02:50.549Z,101496.53
2023-02-08T15:06:34.602Z,101493.73
2023-02-08T15:09:43.900Z,101493.71
2023-02-08T15:12:53.692Z,101487.06
2023-02-08T15:16:01.622Z,101487.91
2023-02-08T15:19:09.464Z,101488.17
2023-02-08T15:22:31.240Z,101486.89
2023-02-08T15:25:38.452Z,101488.98
2023-02-08T15:28:47.722Z,101490.21
2023-02-08T15:31:55.079Z,101491.21
2023-02-08T15:35:02.981Z,101492.30
2023-02-08T15:38:16.946Z,101488.42
2023-02-08T15:41:30.521Z,101488.27
2023-02-08T15:44:37.390Z,101488.54
2023-02-08T15:47:43.697Z,101489.87
2023-02-08T15:50:48.791Z,101492.38
2023-02-08T15:53:56.877Z,101494.47
2023-02-08T15:57:06.938Z,101502.77
2023-02-08T16:00:19.304Z,101498.05
2023-02-08T16:03:28.083Z,101493.43
2023-02-08T16:06:39.004Z,101492.25
2023-02-08T16:09:49.692Z,101492.34
2023-02-08T16:12:58.623Z,101492.63
2023-02-08T16:16:20.045Z,101496.95
2023-02-08T16:19:29.506Z,101503.05
2023-02-08T16:22:35.786Z,101500.73
2023-02-08T16:25:45.334Z,101500.80
2023-02-08T16:28:58.260Z,101501.60
2023-02-08T16:32:11.982Z,101497.06
2023-02-08T16:35:25.882Z,101497.40
2023-02-08T16:38:34.924Z,101495.12
2023-02-08T16:42:16.062Z,101496.28
2023-02-08T16:45:23.693Z,101496.10
2023-02-08T16:48:36.181Z,101496.90
2023-02-08T16:51:47.584Z,101496.96
2023-02-08T16:54:53.977Z,101495.45
2023-02-08T16:58:01.141Z,101496.92
2023-02-08T17:01:07.978Z,101498.10
2023-02-08T17:04:14.264Z,101500.05
2023-02-08T17:07:19.499Z,101507.13
2023-02-08T17:10:29.890Z,101508.93
2023-02-08T17:13:36.526Z,101503.30
2023-02-08T17:16:44.066Z,101505.67
2023-02-08T17:19:50.357Z,101507.63
2023-02-08T17:22:55.398Z,101508.23
2023-02-08T17:26:01.738Z,101512.17
2023-02-08T17:29:06.775Z,101512.00
2023-02-08T17:32:13.042Z,101515.83
2023-02-08T17:35:18.553Z,101515.04
2023-02-08T17:38:24.780Z,101516.49
2023-02-08T17:41:31.030Z,101520.20
2023-02-08T17:44:35.721Z,101520.19
2023-02-08T17:47:42.497Z,101520.61
2023-02-08T17:50:51.168Z,101518.96
2023-02-08T17:53:57.385Z,101518.48
2023-02-08T17:57:01.888Z,101525.96
2023-02-08T18:00:12.428Z,101523.00
2023-02-08T18:03:18.726Z,101519.13
2023-02-08T18:06:24.398Z,101515.52
2023-02-08T18:09:30.731Z,101515.92
2023-02-08T18:12:37.473Z,101511.80
2023-02-08T18:15:44.066Z,101509.17
2023-02-08T18:18:50.663Z,101507.52
2023-02-08T18:21:56.962Z,101509.36
2023-02-08T18:25:01.549Z,101509.21
2023-02-08T18:28:08.472Z,101514.11
2023-02-08T18:31:20.259Z,101518.52
2023-02-08T18:34:26.827Z,101521.23
2023-02-08T18:37:32.183Z,101520.36
2023-02-08T18:40:38.680Z,101521.55
2023-02-08T18:43:45.064Z,101521.77
2023-02-08T18:46:51.363Z,101522.79
2023-02-08T18:49:58.786Z,101521.58
2023-02-08T18:53:05.264Z,101520.30
2023-02-08T18:56:13.751Z,101521.45
2023-02-08T18:59:19.993Z,101520.71
2023-02-08T19:02:26.489Z,101517.48
2023-02-08T19:05:33.120Z,101521.96
2023-02-08T19:08:41.252Z,101521.09
2023-02-08T19:11:47.689Z,101518.72
2023-02-08T19:14:54.037Z,101510.96
2023-02-08T19:18:00.322Z,101506.81
2023-02-08T19:21:08.177Z,101509.11
2023-02-08T19:24:15.737Z,101510.64
2023-02-08T19:27:22.091Z,101512.24
2023-02-08T19:30:28.653Z,101512.56
2023-02-08T19:33:35.040Z,101515.27
2023-02-08T19:36:46.493Z,101518.05
2023-02-08T19:39:52.856Z,101524.00
2023-02-08T19:42:59.230Z,101521.64
2023-02-08T19:46:11.545Z,101520.97
2023-02-08T19:49:18.225Z,101521.33
2023-02-08T19:52:24.506Z,101519.05
2023-02-08T19:55:29.042Z,101521.52
2023-02-08T19:58:36.166Z,101516.77
2023-02-08T20:01:42.580Z,101515.58
2023-02-08T20:04:48.837Z,101517.56
2023-02-08T20:07:53.378Z,101520.33
2023-02-08T20:10:59.649Z,101517.55
2023-02-08T20:14:04.659Z,101516.84
2023-02-08T20:17:10.945Z,101516.50
2023-02-08T20:20:17.201Z,101514.83
2023-02-08T20:23:22.921Z,101511.66
2023-02-08T20:26:28.480Z,101511.44
2023-02-08T20:29:34.975Z,101505.27
2023-02-08T20:32:41.382Z,101503.68
2023-02-08T20:35:47.560Z,101501.92
2023-02-08T20:38:53.002Z,101500.55
2023-02-08T20:41:59.246Z,101501.02
2023-02-08T20:45:06.013Z,101495.38
2023-02-08T20:48:12.124Z,101492.56
2023-02-08T20:51:20.658Z,101488.17
2023-02-08T20:54:27.081Z,101482.53
2023-02-08T20:57:33.333Z,101477.84
2023-02-08T21:00:42.325Z,101472.96
2023-02-08T21:03:49.860Z,101467.52
2023-02-08T21:06:56.142Z,101469.27
2023-02-08T21:10:04.085Z,101469.42
2023-02-08T21:13:10.506Z,101465.23
2023-02-08T21:16:17.437Z,101461.98
2023-02-08T21:19:24.374Z,101463.98
2023-02-08T21:22:30.592Z,101467.71
2023-02-08T21:25:35.115Z,101466.66
2023-02-08T21:28:41.841Z,101462.48
2023-02-08T21:31:51.838Z,101454.59
2023-02-08T21:34:58.188Z,101452.68
2023-02-08T21:38:05.858Z,101450.05
2023-02-08T21:41:14.547Z,101446.52
2023-02-08T21:44:21.342Z,101448.27
2023-02-08T21:47:27.722Z,101450.56
2023-02-08T21:50:51.593Z,101452.70
2023-02-08T21:54:15.094Z,101450.59
2023-02-08T21:57:23.543Z,101443.73
2023-02-08T22:00:29.824Z,101437.73
2023-02-08T22:03:36.121Z,101435.80
2023-02-08T22:06:48.801Z,101435.62
2023-02-08T22:09:55.185Z,101428.92
2023-02-08T22:13:01.771Z,101425.49
2023-02-08T22:16:12.422Z,101420.98
2023-02-08T22:19:18.796Z,101413.27
2023-02-08T22:22:25.353Z,101407.81
2023-02-08T22:25:31.801Z,101408.49
2023-02-08T22:28:38.224Z,101403.75
2023-02-08T22:31:44.656Z,101403.23
2023-02-08T22:34:51.371Z,101401.65
2023-02-08T22:37:57.954Z,101405.02
2023-02-08T22:41:09.923Z,101401.50
2023-02-08T22:44:16.745Z,101396.91
2023-02-08T22:47:23.303Z,101402.89
2023-02-08T22:50:29.618Z,101398.66
2023-02-08T22:53:35.922Z,101400.25
2023-02-08T22:56:42.471Z,101398.87
2023-02-08T22:59:48.880Z,101400.11
2023-02-08T23:02:55.152Z,101397.98
2023-02-08T23:06:01.555Z,101401.83
2023-02-08T23:09:09.061Z,101405.86
2023-02-08T23:12:15.576Z,101400.60
2023-02-08T23:15:22.317Z,101399.40
2023-02-08T23:18:28.776Z,101402.05
2023-02-08T23:21:35.282Z,101397.82
2023-02-08T23:24:41.585Z,101397.64
2023-02-08T23:27:48.746Z,101400.12
2023-02-08T23:30:55.090Z,101399.77
2023-02-08T23:34:02.176Z,101396.59
2023-02-08T23:37:08.390Z,101393.44
2023-02-08T23:40:15.714Z,101390.98
2023-02-08T23:43:21.877Z,101391.86
2023-02-08T23:46:27.421Z,101389.05
2023-02-08T23:49:33.718Z,101388.89
2023-02-08T23:52:40.371Z,101389.92
2023-02-08T23:55:46.594Z,101385.36
2023-02-08T23:58:54.601Z,101384.13
